This is the latest recevied weather packets stored in our database for station/object WZ8H. If no packets are shown the sender has not sent any weather packets the latest 10 day(s).
| Time | Temp. | Humidity | Pressure | Rain* | Wind** | Luminosity | Snow |
|---|---|---|---|---|---|---|---|
| 1777477152 | 10.56° C | 89% | 1010.2 hPa | 0 mm | - | 69 W/m² | - |
| 1777476827 | 10.56° C | 88% | 1010.1 hPa | 0 mm | - | 91 W/m² | - |
| 1777476524 | 10.56° C | 89% | 1009.6 hPa | 0 mm | - | 114 W/m² | - |
| 1777476194 | 10.56° C | 88% | 1009.6 hPa | 0 mm | - | 127 W/m² | - |
| 1777475868 | 10.56° C | 88% | 1009.8 hPa | 0 mm | - | 127 W/m² | - |
| 1777475564 | 10.56° C | 87% | 1010.1 hPa | 0 mm | - | 76 W/m² | - |
| 1777475260 | 10.56° C | 87% | 1010.4 hPa | 0 mm | - | 53 W/m² | - |
| 1777474958 | 10.56° C | 87% | 1010.6 hPa | 0 mm | - | 37 W/m² | - |
| 1777474630 | 11.11° C | 87% | 1010.2 hPa | 0 mm | - | 69 W/m² | - |
| 1777474331 | 11.11° C | 88% | 1009.9 hPa | 0 mm | - | 100 W/m² | - |
| 1777474003 | 11.11° C | 89% | 1009.6 hPa | 0 mm | - | 156 W/m² | - |
| 1777473674 | 11.11° C | 90% | 1009.6 hPa | 0 mm | - | 199 W/m² | - |
| 1777473346 | 11.11° C | 90% | 1009.5 hPa | 0 mm | - | 204 W/m² | - |
| 1777473047 | 10.56° C | 90% | 1009.5 hPa | 0 mm | - | 144 W/m² | - |
| 1777472714 | 10.56° C | 90% | 1009.4 hPa | 0 mm | - | 123 W/m² | - |
| 1777472408 | 10.56° C | 91% | 1009.5 hPa | 0 mm | - | 137 W/m² | - |
| 1777472106 | 10.56° C | 91% | 1009.6 hPa | 0 mm | - | 100 W/m² | - |
| 1777471781 | 10.56° C | 90% | 1009.5 hPa | 0 mm | - | 104 W/m² | - |
| 1777471476 | 10.56° C | 90% | 1009.5 hPa | 0 mm | - | 116 W/m² | - |
| 1777471173 | 11.11° C | 90% | 1009.8 hPa | 0 mm | - | 128 W/m² | - |
| 1777470846 | 11.11° C | 91% | 1009.9 hPa | 0 mm | - | 104 W/m² | - |
| 1777470543 | 11.11° C | 90% | 1010.1 hPa | 0 mm | - | 102 W/m² | - |
| 1777470241 | 11.11° C | 90% | 1010.1 hPa | 0 mm | - | 151 W/m² | - |
| 1777469937 | 11.11° C | 90% | 1010.2 hPa | 0 mm | - | 120 W/m² | - |
| 1777469613 | 11.11° C | 90% | 1010.2 hPa | 0 mm | - | 84 W/m² | - |
* Rain latest hour (hover to see other rain measurements)
** Current wind speed in m/s (hover to see current wind gust speed)